createdAt,value
2017-09-22T00:00:56.666Z,996.27
2017-09-22T00:01:54.594Z,996.29
2017-09-22T00:02:55.140Z,996.30
2017-09-22T00:03:55.181Z,996.27
2017-09-22T00:04:55.329Z,996.26
2017-09-22T00:05:55.251Z,996.27
2017-09-22T00:06:55.188Z,996.24
2017-09-22T00:07:55.150Z,996.25
2017-09-22T00:08:55.187Z,996.27
2017-09-22T00:09:55.245Z,996.25
2017-09-22T00:10:55.196Z,996.20
2017-09-22T00:11:55.233Z,996.17
2017-09-22T00:12:55.783Z,996.26
2017-09-22T00:13:55.857Z,996.25
2017-09-22T00:14:55.908Z,996.24
2017-09-22T00:15:57.777Z,996.24
2017-09-22T00:16:54.604Z,996.23
2017-09-22T00:17:55.860Z,996.30
2017-09-22T00:18:55.191Z,996.27
2017-09-22T00:19:55.242Z,996.22
2017-09-22T00:20:55.280Z,996.20
2017-09-22T00:21:55.315Z,996.25
2017-09-22T00:22:54.646Z,996.24
2017-09-22T00:23:54.638Z,996.18
2017-09-22T00:24:54.674Z,996.21
2017-09-22T00:25:54.607Z,996.15
2017-09-22T00:26:55.339Z,996.23
2017-09-22T00:27:55.374Z,996.25
2017-09-22T00:28:55.306Z,996.28
2017-09-22T00:29:55.945Z,996.20
2017-09-22T00:31:02.700Z,996.25
2017-09-22T00:31:54.705Z,996.16
2017-09-22T00:32:55.942Z,996.24
2017-09-22T00:33:55.875Z,996.22
2017-09-22T00:34:55.914Z,996.12
2017-09-22T00:35:55.255Z,996.11
2017-09-22T00:36:55.304Z,996.19
2017-09-22T00:37:54.652Z,996.15
2017-09-22T00:38:54.706Z,996.16
2017-09-22T00:39:54.697Z,996.15
2017-09-22T00:40:54.653Z,996.16
2017-09-22T00:41:54.685Z,996.21
2017-09-22T00:42:54.817Z,996.13
2017-09-22T00:43:54.664Z,996.16
2017-09-22T00:44:55.315Z,996.14
2017-09-22T00:45:55.548Z,996.06
2017-09-22T00:46:56.023Z,996.13
2017-09-22T00:47:55.960Z,996.06
2017-09-22T00:48:56.015Z,996.04
2017-09-22T00:49:55.946Z,996.11
2017-09-22T00:50:55.981Z,996.07
2017-09-22T00:51:55.314Z,996.08
2017-09-22T00:52:55.354Z,996.08
2017-09-22T00:53:55.397Z,996.08
2017-09-22T00:54:54.719Z,996.11
2017-09-22T00:55:54.776Z,996.14
2017-09-22T00:56:54.817Z,996.24
2017-09-22T00:57:54.760Z,996.11
2017-09-22T00:58:54.800Z,996.19
2017-09-22T00:59:54.827Z,996.15
2017-09-22T01:02:36.705Z,996.12
2017-09-22T01:02:37.520Z,996.19
2017-09-22T01:02:54.806Z,996.21
2017-09-22T01:05:55.061Z,996.18
2017-09-22T01:05:55.875Z,996.21
2017-09-22T01:05:56.790Z,996.20
2017-09-22T01:09:07.306Z,996.19
2017-09-22T01:09:08.121Z,996.20
2017-09-22T01:09:08.939Z,996.23
2017-09-22T01:11:55.010Z,996.16
2017-09-22T01:11:55.614Z,996.22
2017-09-22T01:11:56.633Z,996.20
2017-09-22T01:14:26.275Z,996.26
2017-09-22T01:14:26.983Z,996.28
2017-09-22T01:14:54.872Z,996.28
2017-09-22T01:17:55.665Z,996.31
2017-09-22T01:17:56.577Z,996.30
2017-09-22T01:17:57.492Z,996.33
2017-09-22T01:21:06.941Z,996.33
2017-09-22T01:21:07.548Z,996.30
2017-09-22T01:21:08.570Z,996.32
2017-09-22T01:23:55.132Z,996.35
2017-09-22T01:23:55.946Z,996.31
2017-09-22T01:23:56.864Z,996.24
2017-09-22T01:26:26.254Z,996.29
2017-09-22T01:26:27.067Z,996.30
2017-09-22T01:26:54.836Z,996.30
2017-09-22T01:29:44.563Z,996.22
2017-09-22T01:29:45.172Z,996.28
2017-09-22T01:29:54.909Z,996.31
2017-09-22T01:32:36.589Z,996.20
2017-09-22T01:32:37.404Z,996.29
2017-09-22T01:32:54.861Z,996.20
2017-09-22T01:35:39.845Z,996.25
2017-09-22T01:35:40.660Z,996.20
2017-09-22T01:35:54.906Z,996.30
2017-09-22T01:38:27.008Z,996.22
2017-09-22T01:38:27.818Z,996.20
2017-09-22T01:38:54.884Z,996.29
2017-09-22T01:41:40.845Z,996.16
2017-09-22T01:41:41.663Z,996.13
2017-09-22T01:41:54.906Z,996.19
2017-09-22T01:44:30.212Z,996.13
2017-09-22T01:44:31.024Z,996.22
2017-09-22T01:44:54.882Z,996.21
2017-09-22T01:47:51.577Z,996.21
2017-09-22T01:47:52.198Z,996.24
2017-09-22T01:47:54.922Z,996.24
2017-09-22T01:51:08.060Z,996.23
2017-09-22T01:51:08.877Z,996.19
2017-09-22T01:51:09.691Z,996.23
2017-09-22T01:53:48.906Z,996.14
2017-09-22T01:53:49.715Z,996.20
2017-09-22T01:53:54.941Z,996.17
2017-09-22T01:57:08.137Z,996.16
2017-09-22T01:57:08.748Z,996.17
2017-09-22T01:57:09.768Z,996.16
2017-09-22T01:59:42.971Z,996.19
2017-09-22T01:59:43.786Z,996.12
2017-09-22T01:59:55.020Z,996.20
2017-09-22T02:00:55.595Z,996.18
2017-09-22T02:01:55.573Z,996.19
2017-09-22T02:02:55.601Z,996.19
2017-09-22T02:03:55.542Z,996.23
2017-09-22T02:04:55.574Z,996.19
2017-09-22T02:05:55.602Z,996.20
2017-09-22T02:06:56.153Z,996.22
2017-09-22T02:07:55.619Z,996.26
2017-09-22T02:08:56.156Z,996.23
2017-09-22T02:09:56.195Z,996.16
2017-09-22T02:10:56.257Z,996.24
2017-09-22T02:11:56.293Z,996.23
2017-09-22T02:12:56.240Z,996.21
2017-09-22T02:13:55.588Z,996.18
2017-09-22T02:14:55.640Z,996.13
2017-09-22T02:15:55.592Z,996.28
2017-09-22T02:16:55.657Z,996.26
2017-09-22T02:17:55.005Z,996.18
2017-09-22T02:18:55.059Z,996.23
2017-09-22T02:19:55.014Z,996.27
2017-09-22T02:20:54.996Z,996.26
2017-09-22T02:21:55.043Z,996.19
2017-09-22T02:22:55.095Z,996.16
2017-09-22T02:23:56.258Z,996.11
2017-09-22T02:24:56.302Z,996.14
2017-09-22T02:25:56.267Z,996.16
2017-09-22T02:26:56.258Z,996.14
2017-09-22T02:27:56.255Z,996.09
2017-09-22T02:28:56.304Z,996.16
2017-09-22T02:29:56.347Z,996.08
2017-09-22T02:30:55.717Z,996.07
2017-09-22T02:31:55.672Z,996.12
2017-09-22T02:32:55.720Z,996.10
2017-09-22T02:33:55.062Z,996.10
2017-09-22T02:34:55.113Z,996.01
2017-09-22T02:35:55.065Z,996.05
2017-09-22T02:36:55.123Z,996.08
2017-09-22T02:37:55.085Z,996.04
2017-09-22T02:38:55.125Z,996.08
2017-09-22T02:39:55.122Z,996.03
2017-09-22T02:40:56.344Z,996.05
2017-09-22T02:41:56.297Z,996.07
2017-09-22T02:42:56.354Z,996.10
2017-09-22T02:43:56.309Z,996.07
2017-09-22T02:44:56.356Z,996.12
2017-09-22T02:45:56.317Z,996.06
2017-09-22T02:46:56.372Z,996.09
2017-09-22T02:47:55.819Z,996.11
2017-09-22T02:48:55.770Z,996.07
2017-09-22T02:49:55.733Z,996.09
2017-09-22T02:50:55.106Z,996.10
2017-09-22T02:51:55.127Z,996.10
2017-09-22T02:52:55.176Z,996.03
2017-09-22T02:53:55.191Z,996.10
2017-09-22T02:54:55.143Z,996.07
2017-09-22T02:55:56.334Z,996.15
2017-09-22T02:56:55.795Z,996.13
2017-09-22T02:57:56.386Z,996.08
2017-09-22T02:58:56.330Z,996.16
2017-09-22T02:59:56.374Z,996.11
2017-09-22T03:00:56.368Z,996.14
2017-09-22T03:01:56.416Z,996.15
2017-09-22T03:02:56.471Z,996.14
2017-09-22T03:03:55.801Z,996.15
2017-09-22T03:04:55.747Z,996.15
2017-09-22T03:05:55.801Z,996.13
2017-09-22T03:06:55.135Z,996.07
2017-09-22T03:07:55.277Z,996.14
2017-09-22T03:08:55.220Z,996.14
2017-09-22T03:09:55.166Z,996.11
2017-09-22T03:10:55.212Z,996.13
2017-09-22T03:11:55.242Z,996.12
2017-09-22T03:12:55.869Z,996.12
2017-09-22T03:13:56.413Z,996.14
2017-09-22T03:14:56.475Z,996.07
2017-09-22T03:15:54.401Z,996.07
2017-09-22T03:18:02.041Z,996.15
2017-09-22T03:18:02.864Z,996.09
2017-09-22T03:18:03.471Z,996.07
2017-09-22T03:18:55.286Z,996.08
2017-09-22T03:19:56.419Z,996.04
2017-09-22T03:20:55.969Z,996.13
2017-09-22T03:21:55.181Z,995.98
2017-09-22T03:22:55.209Z,995.99
2017-09-22T03:23:55.254Z,996.02
2017-09-22T03:24:55.291Z,995.97
2017-09-22T03:25:55.263Z,996.03
2017-09-22T03:26:55.205Z,996.01
2017-09-22T03:27:55.247Z,995.98
2017-09-22T03:28:55.907Z,996.02
2017-09-22T03:29:56.464Z,995.98
2017-09-22T03:30:56.433Z,995.95
2017-09-22T03:31:56.489Z,996.05
2017-09-22T03:32:56.457Z,996.05
2017-09-22T03:33:56.499Z,996.01
2017-09-22T03:34:55.838Z,996.01
2017-09-22T03:35:55.905Z,996.07
2017-09-22T03:36:55.937Z,996.06
2017-09-22T03:37:55.888Z,995.94
2017-09-22T03:38:56.063Z,996.05
2017-09-22T03:39:55.296Z,995.97
2017-09-22T03:40:55.353Z,995.96
2017-09-22T03:41:55.311Z,996.01
2017-09-22T03:42:55.357Z,995.98
2017-09-22T03:43:55.301Z,995.98
2017-09-22T03:44:55.943Z,995.95
2017-09-22T03:45:56.524Z,995.90
2017-09-22T03:46:56.527Z,995.97
2017-09-22T03:47:56.582Z,995.96
2017-09-22T03:48:56.733Z,995.94
2017-09-22T03:49:56.582Z,995.96
2017-09-22T03:50:56.554Z,995.92
2017-09-22T03:51:55.913Z,995.98
2017-09-22T03:52:56.075Z,995.92
2017-09-22T03:53:56.052Z,995.83
2017-09-22T03:54:55.297Z,995.88
2017-09-22T03:55:55.357Z,995.90
2017-09-22T03:56:55.398Z,995.88
2017-09-22T03:57:55.347Z,995.81
2017-09-22T03:58:55.414Z,995.93
2017-09-22T03:59:55.350Z,995.89
2017-09-22T04:00:56.026Z,995.88
2017-09-22T04:01:56.573Z,995.91
2017-09-22T04:02:56.728Z,995.94
2017-09-22T04:03:56.689Z,995.93
2017-09-22T04:04:56.637Z,995.83
2017-09-22T04:05:56.697Z,995.86
2017-09-22T04:06:55.941Z,995.78
2017-09-22T04:07:56.076Z,995.85
2017-09-22T04:08:56.038Z,995.86
2017-09-22T04:09:56.016Z,995.89
2017-09-22T04:10:55.992Z,995.89
2017-09-22T04:11:56.051Z,995.96
2017-09-22T04:12:55.423Z,995.89
2017-09-22T04:13:55.474Z,995.85
2017-09-22T04:14:55.453Z,995.82
2017-09-22T04:15:55.416Z,995.89
2017-09-22T04:16:55.359Z,995.87
2017-09-22T04:17:56.722Z,995.84
2017-09-22T04:18:56.659Z,995.92
2017-09-22T04:19:56.710Z,995.87
2017-09-22T04:20:56.686Z,995.90
2017-09-22T04:21:56.746Z,995.94
2017-09-22T04:22:56.687Z,995.87
2017-09-22T04:23:56.754Z,995.84
2017-09-22T04:24:55.990Z,995.87
2017-09-22T04:25:56.111Z,995.84
2017-09-22T04:26:56.073Z,995.88
2017-09-22T04:27:55.408Z,995.80
2017-09-22T04:28:55.462Z,995.85
2017-09-22T04:29:55.515Z,995.82
2017-09-22T04:30:55.574Z,995.86
2017-09-22T04:31:55.560Z,995.87
2017-09-22T04:32:55.509Z,995.80
2017-09-22T04:33:55.458Z,995.86
2017-09-22T04:34:56.710Z,995.85
2017-09-22T04:35:56.683Z,995.88
2017-09-22T04:36:56.728Z,995.91
2017-09-22T04:37:56.703Z,995.91
2017-09-22T04:38:56.749Z,995.89
2017-09-22T04:39:56.891Z,995.84
2017-09-22T04:40:56.871Z,995.92
2017-09-22T04:41:56.142Z,995.95
2017-09-22T04:42:56.095Z,995.91
2017-09-22T04:43:56.162Z,995.90
2017-09-22T04:44:55.506Z,995.90
2017-09-22T04:45:55.476Z,995.86
2017-09-22T04:46:55.546Z,995.99
2017-09-22T04:47:55.395Z,995.94
2017-09-22T04:48:55.656Z,995.90
2017-09-22T04:49:55.546Z,995.84
2017-09-22T04:50:56.700Z,995.93
2017-09-22T04:51:56.754Z,995.85
2017-09-22T04:52:56.796Z,995.88
2017-09-22T04:53:56.857Z,995.91
2017-09-22T04:54:56.905Z,995.84
2017-09-22T04:55:56.771Z,995.89
2017-09-22T04:56:56.108Z,995.79
2017-09-22T04:57:56.271Z,995.94
2017-09-22T04:58:55.503Z,995.97
2017-09-22T04:59:55.574Z,995.90
2017-09-22T05:00:55.492Z,995.86
2017-09-22T05:01:55.453Z,995.97
2017-09-22T05:02:55.605Z,995.95
2017-09-22T05:03:55.562Z,995.92
2017-09-22T05:04:55.594Z,995.94
2017-09-22T05:05:55.558Z,995.94
2017-09-22T05:06:56.848Z,995.94
2017-09-22T05:07:56.914Z,995.90
2017-09-22T05:08:56.780Z,995.93
2017-09-22T05:09:56.941Z,995.90
2017-09-22T05:10:56.946Z,995.90
2017-09-22T05:11:56.916Z,995.91
2017-09-22T05:12:56.909Z,995.83
2017-09-22T05:13:56.855Z,995.87
2017-09-22T05:14:57.018Z,995.87
2017-09-22T05:15:56.272Z,995.97
2017-09-22T05:16:56.267Z,995.86
2017-09-22T05:17:56.441Z,995.86
2017-09-22T05:18:55.596Z,995.87
2017-09-22T05:19:55.573Z,995.88
2017-09-22T05:20:55.575Z,995.84
2017-09-22T05:21:55.509Z,995.80
2017-09-22T05:22:55.677Z,995.87
2017-09-22T05:23:55.630Z,995.94
2017-09-22T05:24:56.375Z,995.92
2017-09-22T05:25:56.850Z,995.90
2017-09-22T05:26:56.928Z,995.86
2017-09-22T05:27:56.883Z,995.95
2017-09-22T05:28:56.843Z,995.82
2017-09-22T05:29:56.205Z,995.86
2017-09-22T05:30:56.252Z,995.89
2017-09-22T05:31:56.312Z,995.89
2017-09-22T05:32:57.072Z,995.86
2017-09-22T05:33:56.422Z,995.86
2017-09-22T05:34:55.562Z,995.92
2017-09-22T05:35:55.663Z,995.95
2017-09-22T05:36:55.611Z,995.93
2017-09-22T05:37:55.777Z,995.82
2017-09-22T05:38:55.729Z,995.92
2017-09-22T05:39:55.698Z,995.89
2017-09-22T05:40:55.657Z,995.87
2017-09-22T05:41:56.453Z,995.87
2017-09-22T05:42:56.925Z,995.95
2017-09-22T05:43:56.879Z,995.93
2017-09-22T05:44:57.061Z,995.91
2017-09-22T05:45:56.925Z,995.86
2017-09-22T05:46:56.267Z,995.84
2017-09-22T05:47:56.330Z,995.94
2017-09-22T05:48:56.301Z,995.83
2017-09-22T05:50:01.613Z,995.94
2017-09-22T05:50:55.859Z,995.89
2017-09-22T05:51:56.308Z,995.90
2017-09-22T05:52:56.361Z,995.99
2017-09-22T05:53:56.354Z,995.91
2017-09-22T05:54:56.500Z,995.96
2017-09-22T05:55:56.443Z,995.96
2017-09-22T05:56:56.909Z,995.95
2017-09-22T05:57:56.979Z,996.02
2017-09-22T05:58:57.008Z,995.97
2017-09-22T05:59:56.867Z,995.97
2017-09-22T06:00:57.010Z,995.98
2017-09-22T06:01:56.966Z,996.01
2017-09-22T06:02:57.020Z,996.08
2017-09-22T06:03:56.473Z,996.05
2017-09-22T06:04:56.431Z,996.11
2017-09-22T06:05:56.400Z,996.14
2017-09-22T06:06:56.383Z,996.13
2017-09-22T06:07:56.435Z,996.15
2017-09-22T06:08:55.670Z,996.10
2017-09-22T06:09:55.732Z,996.06
2017-09-22T06:10:55.685Z,996.17
2017-09-22T06:11:55.827Z,996.16
2017-09-22T06:12:55.793Z,996.23
2017-09-22T06:13:56.421Z,996.12
2017-09-22T06:14:56.460Z,996.16
2017-09-22T08:21:16.375Z,996.73
2017-09-22T08:21:56.551Z,996.68
2017-09-22T08:22:58.389Z,996.71
2017-09-22T08:23:57.613Z,996.66
2017-09-22T08:24:57.748Z,996.63
2017-09-22T08:25:57.375Z,996.73
2017-09-22T08:26:57.828Z,996.71
2017-09-22T08:27:57.868Z,996.60
2017-09-22T08:28:56.490Z,996.66
2017-09-22T08:29:56.429Z,996.66
2017-09-22T08:30:56.587Z,996.66
2017-09-22T08:31:56.621Z,996.66
2017-09-22T08:32:56.557Z,996.66
2017-09-22T08:33:56.492Z,996.60
2017-09-22T08:34:56.637Z,996.71
2017-09-22T08:35:56.490Z,996.62
2017-09-22T08:36:56.522Z,996.61
2017-09-22T08:37:57.951Z,996.66
2017-09-22T08:38:57.505Z,996.60
2017-09-22T08:39:57.536Z,996.65
2017-09-22T08:41:02.401Z,996.53
2017-09-22T08:41:57.807Z,996.68
2017-09-22T08:42:58.153Z,996.61
2017-09-22T08:43:57.692Z,996.64
2017-09-22T08:44:57.715Z,996.69
2017-09-22T08:45:57.947Z,996.56
2017-09-22T08:46:57.689Z,996.59
2017-09-22T08:47:56.519Z,996.60
2017-09-22T08:48:56.752Z,996.58
2017-09-22T08:49:56.609Z,996.60
2017-09-22T08:50:56.555Z,996.57
2017-09-22T08:51:56.600Z,996.61
2017-09-22T08:52:56.551Z,996.58
2017-09-22T08:53:58.209Z,996.49
2017-09-22T08:54:57.850Z,996.58
2017-09-22T08:55:57.794Z,996.50
2017-09-22T08:56:57.836Z,996.52
2017-09-22T08:57:57.691Z,996.58
2017-09-22T08:58:57.744Z,996.55
2017-09-22T08:59:57.782Z,996.58
2017-09-22T09:00:57.933Z,996.56
2017-09-22T09:01:57.565Z,996.48
2017-09-22T09:02:57.787Z,996.55
2017-09-22T09:03:56.619Z,996.49
2017-09-22T09:04:58.463Z,996.51
2017-09-22T09:05:56.689Z,996.46
2017-09-22T09:06:56.626Z,996.47
2017-09-22T09:07:56.592Z,996.48
2017-09-22T09:08:56.732Z,996.46
2017-09-22T09:09:56.710Z,996.42
2017-09-22T09:10:56.962Z,996.37
2017-09-22T09:11:56.606Z,996.43
2017-09-22T09:12:57.921Z,996.41
2017-09-22T09:13:57.768Z,996.49
2017-09-22T09:14:57.527Z,996.41
2017-09-22T09:15:57.717Z,996.40
2017-09-22T09:16:57.978Z,996.42
2017-09-22T09:17:58.058Z,996.40
2017-09-22T09:18:56.622Z,996.49
2017-09-22T09:19:57.999Z,996.41
2017-09-22T09:20:58.008Z,996.40
2017-09-22T09:21:56.753Z,996.42
2017-09-22T09:22:56.796Z,996.45
2017-09-22T09:23:56.844Z,996.46
2017-09-22T09:24:58.415Z,996.48
2017-09-22T09:25:56.764Z,996.48
2017-09-22T09:26:56.730Z,996.44
2017-09-22T09:27:56.788Z,996.43
2017-09-22T09:28:56.735Z,996.43
2017-09-22T09:29:56.688Z,996.39
2017-09-22T09:30:58.237Z,996.48
2017-09-22T09:31:57.788Z,996.43
2017-09-22T09:32:57.766Z,996.52
2017-09-22T09:33:57.910Z,996.44
2017-09-22T09:34:57.662Z,996.45
2017-09-22T09:35:57.602Z,996.44
2017-09-22T09:36:57.646Z,996.45
2017-09-22T09:37:57.887Z,996.53
2017-09-22T09:38:58.023Z,996.44
2017-09-22T09:39:56.662Z,996.46
2017-09-22T09:40:56.747Z,996.45
2017-09-22T09:41:56.695Z,996.45
2017-09-22T09:42:56.732Z,996.45
2017-09-22T09:43:56.683Z,996.48
2017-09-22T09:44:56.737Z,996.52
2017-09-22T09:45:56.790Z,996.48
2017-09-22T09:46:57.967Z,996.46
2017-09-22T09:47:57.914Z,996.41
2017-09-22T09:49:02.870Z,996.44
2017-09-22T09:49:56.694Z,996.41
2017-09-22T09:50:58.574Z,996.46
2017-09-22T09:51:58.038Z,996.45
2017-09-22T09:52:57.783Z,996.51
2017-09-22T09:53:57.827Z,996.52
2017-09-22T09:54:58.070Z,996.50
2017-09-22T09:55:58.018Z,996.47
2017-09-22T09:56:56.889Z,996.42
2017-09-22T09:57:56.732Z,996.47
2017-09-22T09:58:56.781Z,996.42
2017-09-22T09:59:58.453Z,996.53
2017-09-22T10:00:56.804Z,996.42
2017-09-22T10:01:56.752Z,996.46
2017-09-22T10:02:58.030Z,996.39
2017-09-22T10:03:57.973Z,996.43
2017-09-22T10:04:58.017Z,996.40
2017-09-22T10:05:57.673Z,996.45
2017-09-22T10:06:58.027Z,996.45
2017-09-22T10:07:57.767Z,996.45
2017-09-22T10:08:57.716Z,996.41
2017-09-22T10:09:58.186Z,996.32
2017-09-22T10:10:57.896Z,996.34
2017-09-22T10:11:58.045Z,996.30
2017-09-22T10:12:56.787Z,996.30
2017-09-22T10:13:56.825Z,996.33
2017-09-22T10:14:56.813Z,996.31
2017-09-22T10:15:56.861Z,996.31
2017-09-22T10:16:56.903Z,996.23
2017-09-22T10:17:56.846Z,996.22
2017-09-22T10:18:56.800Z,996.23
2017-09-22T10:19:57.943Z,996.21
2017-09-22T10:20:57.987Z,996.20
2017-09-22T10:21:57.952Z,996.19
2017-09-22T10:22:57.790Z,996.15
2017-09-22T10:23:57.741Z,996.14
2017-09-22T10:24:58.195Z,996.13
2017-09-22T10:25:58.190Z,996.18
2017-09-22T10:26:57.945Z,996.13
2017-09-22T10:27:57.727Z,996.18
2017-09-22T10:28:57.784Z,996.18
2017-09-22T10:29:58.239Z,996.10
2017-09-22T10:30:58.112Z,996.09
2017-09-22T10:31:58.209Z,996.23
2017-09-22T10:32:57.051Z,996.12
2017-09-22T10:33:56.907Z,996.12
2017-09-22T10:34:57.061Z,996.18
2017-09-22T10:35:56.919Z,996.06
2017-09-22T10:36:56.975Z,996.16
2017-09-22T10:37:56.928Z,996.09
2017-09-22T10:38:57.795Z,996.08
2017-09-22T10:39:58.050Z,996.13
